createdAt,value
2023-04-30T00:02:20.253Z,7.96
2023-04-30T00:04:47.456Z,7.90
2023-04-30T00:07:14.662Z,7.94
2023-04-30T00:09:41.620Z,7.98
2023-04-30T00:12:08.649Z,7.90
2023-04-30T00:14:36.583Z,7.80
2023-04-30T00:17:03.675Z,7.82
2023-04-30T00:19:30.702Z,7.85
2023-04-30T00:21:57.505Z,7.79
2023-04-30T00:24:24.495Z,7.81
2023-04-30T00:26:51.298Z,7.82
2023-04-30T00:29:18.174Z,7.83
2023-04-30T00:31:45.082Z,7.80
2023-04-30T00:34:12.069Z,7.75
2023-04-30T00:36:46.228Z,7.70
2023-04-30T00:39:13.340Z,7.72
2023-04-30T00:41:41.491Z,7.67
2023-04-30T00:44:08.628Z,7.52
2023-04-30T00:46:35.839Z,7.55
2023-04-30T00:49:05.233Z,7.53
2023-04-30T00:51:33.476Z,7.58
2023-04-30T00:54:03.670Z,7.52
2023-04-30T00:56:31.924Z,7.49
2023-04-30T00:58:59.768Z,7.48
2023-04-30T01:01:29.173Z,7.46
2023-04-30T01:03:56.466Z,7.43
2023-04-30T01:06:25.706Z,7.30
2023-04-30T01:08:53.454Z,7.22
2023-04-30T01:11:38.548Z,7.23
2023-04-30T01:14:37.128Z,7.20
2023-04-30T01:17:06.624Z,7.21
2023-04-30T01:19:44.575Z,7.10
2023-04-30T01:22:27.198Z,7.06
2023-04-30T01:24:54.805Z,7.07
2023-04-30T01:27:43.459Z,7.04
2023-04-30T01:30:12.029Z,6.96
2023-04-30T01:32:38.931Z,6.88
2023-04-30T01:35:06.224Z,6.88
2023-04-30T01:38:00.239Z,6.80
2023-04-30T01:40:50.015Z,6.79
2023-04-30T01:43:35.785Z,6.81
2023-04-30T01:46:17.836Z,6.76
2023-04-30T01:49:09.317Z,6.66
2023-04-30T01:51:41.350Z,6.62
2023-04-30T01:54:27.855Z,6.33
2023-04-30T01:57:05.014Z,6.42
2023-04-30T01:59:38.538Z,6.34
2023-04-30T02:02:06.871Z,6.40
2023-04-30T02:04:33.972Z,6.34
2023-04-30T02:07:01.243Z,6.27
2023-04-30T02:09:28.111Z,6.11
2023-04-30T02:11:54.892Z,6.21
2023-04-30T02:14:21.880Z,6.11
2023-04-30T02:16:52.514Z,6.13
2023-04-30T02:19:19.415Z,6.15
2023-04-30T02:21:46.559Z,6.13
2023-04-30T02:24:13.431Z,6.07
2023-04-30T02:26:40.380Z,5.98
2023-04-30T02:29:07.284Z,5.89
2023-04-30T02:31:34.113Z,5.94
2023-04-30T02:34:01.096Z,5.89
2023-04-30T02:36:27.868Z,5.94
2023-04-30T02:38:54.771Z,5.85
2023-04-30T02:41:21.840Z,5.70
2023-04-30T02:43:48.876Z,5.73
2023-04-30T02:46:15.788Z,5.64
2023-04-30T02:48:42.774Z,5.59
2023-04-30T02:51:10.004Z,5.63
2023-04-30T02:53:36.822Z,5.49
2023-04-30T02:56:03.910Z,5.48
2023-04-30T02:58:30.849Z,5.39
2023-04-30T03:00:57.698Z,5.23
2023-04-30T03:03:24.696Z,5.24
2023-04-30T03:05:51.707Z,5.35
2023-04-30T03:08:18.642Z,5.28
2023-04-30T03:10:45.604Z,5.16
2023-04-30T03:13:12.624Z,5.11
2023-04-30T03:15:39.437Z,5.15
2023-04-30T03:18:06.321Z,5.19
2023-04-30T03:20:33.244Z,5.07
2023-04-30T03:23:00.417Z,5.16
2023-04-30T03:25:27.366Z,5.12
2023-04-30T03:27:54.407Z,5.20
2023-04-30T03:30:21.454Z,5.14
2023-04-30T03:32:48.621Z,5.19
2023-04-30T03:35:16.539Z,5.15
2023-04-30T03:37:43.503Z,5.27
2023-04-30T03:40:11.696Z,5.29
2023-04-30T03:42:38.995Z,5.24
2023-04-30T03:45:06.403Z,5.41
2023-04-30T03:47:33.888Z,5.37
2023-04-30T03:50:01.282Z,5.44
2023-04-30T03:52:28.375Z,5.37
2023-04-30T03:54:55.413Z,5.51
2023-04-30T03:57:22.677Z,5.53
2023-04-30T03:59:50.760Z,5.55
2023-04-30T04:02:18.004Z,5.56
2023-04-30T04:04:44.907Z,5.58
2023-04-30T04:07:12.281Z,5.58
2023-04-30T04:09:39.240Z,5.64
2023-04-30T04:12:06.915Z,5.63
2023-04-30T04:14:34.582Z,5.69
2023-04-30T04:17:05.734Z,5.77
2023-04-30T04:19:32.976Z,5.66
2023-04-30T04:22:00.961Z,5.76
2023-04-30T04:24:27.946Z,5.82
2023-04-30T04:26:54.874Z,5.78
2023-04-30T04:29:21.866Z,5.78
2023-04-30T04:31:52.265Z,5.84
2023-04-30T04:34:20.346Z,5.97
2023-04-30T04:36:47.594Z,6.02
2023-04-30T04:39:15.182Z,6.29
2023-04-30T04:41:42.636Z,6.39
2023-04-30T04:44:09.827Z,6.53
2023-04-30T04:46:40.092Z,6.64
2023-04-30T04:49:07.043Z,6.81
2023-04-30T04:51:35.424Z,6.93
2023-04-30T04:54:02.464Z,7.03
2023-04-30T04:56:29.265Z,7.10
2023-04-30T04:58:56.940Z,7.30
2023-04-30T05:01:24.065Z,7.44
2023-04-30T05:03:51.389Z,7.71
2023-04-30T05:06:19.699Z,7.86
2023-04-30T05:08:46.808Z,8.01
2023-04-30T05:11:15.533Z,8.18
2023-04-30T05:13:42.906Z,8.44
2023-04-30T05:16:09.930Z,8.63
2023-04-30T05:18:36.890Z,8.85
2023-04-30T05:21:04.466Z,9.11
2023-04-30T05:23:31.414Z,9.39
2023-04-30T05:25:58.308Z,9.58
2023-04-30T05:28:25.394Z,9.74
2023-04-30T05:30:52.181Z,9.87
2023-04-30T05:33:19.313Z,9.91
2023-04-30T05:35:46.158Z,9.98
2023-04-30T05:38:13.132Z,10.07
2023-04-30T05:40:40.867Z,10.18
2023-04-30T05:43:07.759Z,10.23
2023-04-30T05:45:35.039Z,10.33
2023-04-30T05:48:02.234Z,10.46
2023-04-30T05:50:29.320Z,10.61
2023-04-30T05:52:56.049Z,10.79
2023-04-30T05:55:23.108Z,10.94
2023-04-30T05:57:50.013Z,11.08
2023-04-30T06:00:17.078Z,11.01
2023-04-30T06:02:44.098Z,11.06
2023-04-30T06:05:12.402Z,11.29
2023-04-30T06:07:40.854Z,11.42
2023-04-30T06:10:09.441Z,11.43
2023-04-30T06:12:36.566Z,11.57
2023-04-30T06:15:03.935Z,11.84
2023-04-30T06:17:30.825Z,11.99
2023-04-30T06:20:01.051Z,12.10
2023-04-30T06:22:28.256Z,12.40
2023-04-30T06:24:55.332Z,12.48
2023-04-30T06:27:22.253Z,12.72
2023-04-30T06:29:49.202Z,12.90
2023-04-30T06:32:16.692Z,12.94
2023-04-30T06:34:43.699Z,13.13
2023-04-30T06:37:10.527Z,13.27
2023-04-30T06:39:37.755Z,13.30
2023-04-30T06:42:04.595Z,13.42
2023-04-30T06:44:31.850Z,13.53
2023-04-30T06:46:58.813Z,13.63
2023-04-30T06:49:25.996Z,13.77
2023-04-30T06:51:56.401Z,13.96
2023-04-30T06:54:23.507Z,14.05
2023-04-30T06:56:50.520Z,14.27
2023-04-30T06:59:26.193Z,14.35
2023-04-30T07:01:53.662Z,14.49
2023-04-30T07:04:36.597Z,14.54
2023-04-30T07:07:03.480Z,14.82
2023-04-30T07:09:30.859Z,14.91
2023-04-30T07:11:59.271Z,14.90
2023-04-30T07:14:26.220Z,14.91
2023-04-30T07:16:53.517Z,14.97
2023-04-30T07:19:20.699Z,15.12
2023-04-30T07:21:47.589Z,15.43
2023-04-30T07:24:14.495Z,15.70
2023-04-30T07:26:42.484Z,16.02
2023-04-30T07:29:09.937Z,16.34
2023-04-30T07:31:37.149Z,16.72
2023-04-30T07:34:03.951Z,16.83
2023-04-30T07:36:31.061Z,17.03
2023-04-30T07:38:57.951Z,17.08
2023-04-30T07:41:25.814Z,16.93
2023-04-30T07:43:52.833Z,16.89
2023-04-30T07:46:19.921Z,16.86
2023-04-30T07:48:46.769Z,16.90
2023-04-30T07:51:13.808Z,17.08
2023-04-30T07:53:40.778Z,17.16
2023-04-30T07:56:08.336Z,17.33
2023-04-30T07:58:35.456Z,17.24
2023-04-30T08:01:02.383Z,17.23
2023-04-30T08:03:29.444Z,17.39
2023-04-30T08:05:56.411Z,17.47
2023-04-30T08:08:24.722Z,17.54
2023-04-30T08:10:52.597Z,17.60
2023-04-30T08:13:23.385Z,17.76
2023-04-30T08:15:50.334Z,17.85
2023-04-30T08:18:17.496Z,17.94
2023-04-30T08:20:44.656Z,17.92
2023-04-30T08:23:11.564Z,17.98
2023-04-30T08:25:38.434Z,17.90
2023-04-30T08:28:07.059Z,17.83
2023-04-30T08:30:33.948Z,17.99
2023-04-30T08:33:00.923Z,18.04
2023-04-30T08:35:29.902Z,17.93
2023-04-30T08:37:57.534Z,17.99
2023-04-30T08:40:43.855Z,17.76
2023-04-30T08:43:14.471Z,17.60
2023-04-30T08:45:41.930Z,17.57
2023-04-30T08:48:15.779Z,17.67
2023-04-30T08:50:42.742Z,17.87
2023-04-30T08:53:11.560Z,17.85
2023-04-30T08:55:40.622Z,18.10
2023-04-30T08:58:10.382Z,18.11
2023-04-30T09:00:39.620Z,18.18
2023-04-30T09:03:08.432Z,18.30
2023-04-30T09:05:37.408Z,18.39
2023-04-30T09:08:04.680Z,18.46
2023-04-30T09:10:35.717Z,18.55
2023-04-30T09:13:10.283Z,18.13
2023-04-30T09:15:39.057Z,18.49
2023-04-30T09:18:18.235Z,18.38
2023-04-30T09:21:03.056Z,18.36
2023-04-30T09:23:30.811Z,18.51
2023-04-30T09:25:58.179Z,18.76
2023-04-30T09:28:26.772Z,18.88
2023-04-30T09:30:53.947Z,18.90
2023-04-30T09:33:21.029Z,18.88
2023-04-30T09:35:56.793Z,18.97
2023-04-30T09:38:32.447Z,19.04
2023-04-30T09:41:01.220Z,19.16
2023-04-30T09:43:29.364Z,19.47
2023-04-30T09:45:58.904Z,19.52
2023-04-30T09:48:31.627Z,19.75
2023-04-30T09:50:58.667Z,19.69
2023-04-30T09:53:25.784Z,19.82
2023-04-30T09:55:52.809Z,20.08
2023-04-30T09:58:20.123Z,20.20
2023-04-30T10:00:56.607Z,20.40
2023-04-30T10:03:24.226Z,20.28
2023-04-30T10:05:53.183Z,20.12
2023-04-30T10:08:34.183Z,20.34
2023-04-30T10:11:07.223Z,20.26
2023-04-30T10:13:51.780Z,20.41
2023-04-30T10:16:43.746Z,20.29
2023-04-30T10:19:19.812Z,20.27
2023-04-30T10:21:47.445Z,20.07
2023-04-30T10:24:15.941Z,20.11
2023-04-30T10:26:44.318Z,19.94
2023-04-30T10:29:13.344Z,19.53
2023-04-30T10:31:41.843Z,19.57
2023-04-30T10:34:33.688Z,19.61
2023-04-30T10:37:07.696Z,19.28
2023-04-30T10:39:41.752Z,19.33
2023-04-30T10:42:11.053Z,19.38
2023-04-30T10:44:50.804Z,19.30
2023-04-30T10:47:19.307Z,19.41
2023-04-30T10:49:48.375Z,19.44
2023-04-30T10:52:27.745Z,19.30
2023-04-30T10:54:58.030Z,19.44
2023-04-30T10:57:29.749Z,19.46
2023-04-30T11:00:08.643Z,19.55
2023-04-30T11:02:44.204Z,19.54
2023-04-30T11:05:12.746Z,19.68
2023-04-30T11:07:50.014Z,19.81
2023-04-30T11:10:21.196Z,19.84
2023-04-30T11:12:49.922Z,19.53
2023-04-30T11:15:20.343Z,19.46
2023-04-30T11:17:49.612Z,19.57
2023-04-30T11:20:21.850Z,19.72
2023-04-30T11:22:49.023Z,19.64
2023-04-30T11:25:20.050Z,19.61
2023-04-30T11:27:46.990Z,19.36
2023-04-30T11:30:18.690Z,19.12
2023-04-30T11:32:47.961Z,19.20
2023-04-30T11:35:19.237Z,18.84
2023-04-30T11:37:48.319Z,19.01
2023-04-30T11:40:15.721Z,18.98
2023-04-30T11:42:45.780Z,19.09
2023-04-30T11:45:17.819Z,19.22
2023-04-30T11:47:52.740Z,19.43
2023-04-30T11:50:27.449Z,19.44
2023-04-30T11:56:31.326Z,19.65
2023-04-30T11:58:58.829Z,19.87
2023-04-30T12:01:28.113Z,19.91
2023-04-30T12:03:57.547Z,19.81
2023-04-30T12:06:29.256Z,19.73
2023-04-30T12:08:57.387Z,19.84
2023-04-30T12:11:29.227Z,19.68
2023-04-30T12:14:00.845Z,19.62
2023-04-30T12:16:28.995Z,19.60
2023-04-30T12:18:56.212Z,19.63
2023-04-30T12:21:23.668Z,19.60
2023-04-30T12:23:50.861Z,19.78
2023-04-30T12:26:17.966Z,19.96
2023-04-30T12:28:48.209Z,20.09
2023-04-30T12:31:17.792Z,20.12
2023-04-30T12:33:44.822Z,20.21
2023-04-30T12:36:12.051Z,20.17
2023-04-30T12:38:44.171Z,20.18
2023-04-30T12:41:15.406Z,20.14
2023-04-30T12:43:42.562Z,20.20
2023-04-30T12:46:09.505Z,20.37
2023-04-30T12:48:45.807Z,20.50
2023-04-30T12:51:12.708Z,20.44
2023-04-30T12:53:46.518Z,20.58
2023-04-30T12:56:16.615Z,20.77
2023-04-30T12:58:50.199Z,20.86
2023-04-30T13:01:19.563Z,20.73
2023-04-30T13:03:46.598Z,20.71
2023-04-30T13:06:13.968Z,20.87
2023-04-30T13:08:50.249Z,21.20
2023-04-30T13:11:26.288Z,21.35
2023-04-30T13:13:55.627Z,21.67
2023-04-30T13:16:24.622Z,21.93
2023-04-30T13:18:52.114Z,22.08
2023-04-30T13:21:19.049Z,21.98
2023-04-30T13:23:52.821Z,21.80
2023-04-30T13:26:21.925Z,21.78
2023-04-30T13:28:48.916Z,21.76
2023-04-30T13:31:15.918Z,21.74
2023-04-30T13:33:42.853Z,21.76
2023-04-30T13:36:09.796Z,21.80
2023-04-30T13:38:36.920Z,21.57
2023-04-30T13:41:03.799Z,21.39
2023-04-30T13:43:31.382Z,21.22
2023-04-30T13:45:58.954Z,21.21
2023-04-30T13:48:25.910Z,20.95
2023-04-30T13:50:52.916Z,21.01
2023-04-30T13:53:19.771Z,21.00
2023-04-30T13:55:46.783Z,20.82
2023-04-30T13:58:13.889Z,21.04
2023-04-30T14:00:41.304Z,21.28
2023-04-30T14:03:08.685Z,21.49
2023-04-30T14:05:36.357Z,21.70
2023-04-30T14:08:04.512Z,21.82
2023-04-30T14:10:32.264Z,21.75
2023-04-30T14:12:59.285Z,21.49
2023-04-30T14:15:26.206Z,21.59
2023-04-30T14:17:53.473Z,21.65
2023-04-30T14:20:20.538Z,21.61
2023-04-30T14:22:47.771Z,21.75
2023-04-30T14:25:14.703Z,21.72
2023-04-30T14:27:41.957Z,21.76
2023-04-30T14:30:09.418Z,21.81
2023-04-30T14:32:37.683Z,21.82
2023-04-30T14:35:05.541Z,21.97
2023-04-30T14:37:32.358Z,22.11
2023-04-30T14:40:00.668Z,22.05
2023-04-30T14:42:27.751Z,22.03
2023-04-30T14:44:54.594Z,21.75
2023-04-30T14:47:22.759Z,21.72
2023-04-30T14:49:52.177Z,21.63
2023-04-30T14:52:20.057Z,21.51
2023-04-30T14:54:47.249Z,21.40
2023-04-30T14:57:15.070Z,21.35
2023-04-30T14:59:42.058Z,21.30
2023-04-30T15:02:09.430Z,21.15
2023-04-30T15:04:36.398Z,21.12
2023-04-30T15:07:04.354Z,21.08
2023-04-30T15:09:31.498Z,20.93
2023-04-30T15:11:58.376Z,20.89
2023-04-30T15:14:25.309Z,20.99
2023-04-30T15:16:52.222Z,21.07
2023-04-30T15:19:19.061Z,21.09
2023-04-30T15:21:48.366Z,21.05
2023-04-30T15:24:16.270Z,20.84
2023-04-30T15:26:43.120Z,20.61
2023-04-30T15:29:10.684Z,20.59
2023-04-30T15:31:37.928Z,20.53
2023-04-30T15:34:04.957Z,20.54
2023-04-30T15:36:32.448Z,20.51
2023-04-30T15:38:59.648Z,20.52
2023-04-30T15:41:26.482Z,20.61
2023-04-30T15:43:53.530Z,20.63
2023-04-30T15:46:20.575Z,20.52
2023-04-30T15:48:47.589Z,20.71
2023-04-30T15:51:14.616Z,20.74
2023-04-30T15:53:41.539Z,20.80
2023-04-30T15:56:09.734Z,20.91
2023-04-30T15:58:36.799Z,21.34
2023-04-30T16:01:03.797Z,21.92
2023-04-30T16:03:31.649Z,22.43
2023-04-30T16:06:00.969Z,22.86
2023-04-30T16:08:28.532Z,23.22
2023-04-30T16:10:55.797Z,23.42
2023-04-30T16:13:22.695Z,23.65
2023-04-30T16:15:49.706Z,23.85
2023-04-30T16:18:16.923Z,23.85
2023-04-30T16:20:47.421Z,23.66
2023-04-30T16:23:14.688Z,23.42
2023-04-30T16:25:42.078Z,23.01
2023-04-30T16:28:09.003Z,22.38
2023-04-30T16:30:36.132Z,22.02
2023-04-30T16:33:03.200Z,21.32
2023-04-30T16:35:30.105Z,20.94
2023-04-30T16:37:57.196Z,20.71
2023-04-30T16:40:24.135Z,20.38
2023-04-30T16:42:51.020Z,20.13
2023-04-30T16:45:18.145Z,19.90
2023-04-30T16:47:45.605Z,19.67
2023-04-30T16:50:12.697Z,19.49
2023-04-30T16:52:39.703Z,19.23
2023-04-30T16:55:07.338Z,19.06
2023-04-30T16:57:34.412Z,18.90
2023-04-30T17:00:01.219Z,18.70
2023-04-30T17:02:28.262Z,18.60
2023-04-30T17:04:55.273Z,18.46
2023-04-30T17:07:22.206Z,18.32
2023-04-30T17:09:49.166Z,18.18
2023-04-30T17:12:15.957Z,18.06
2023-04-30T17:14:43.130Z,17.93
2023-04-30T17:17:10.006Z,17.80
2023-04-30T17:19:36.923Z,17.69
2023-04-30T17:22:03.943Z,17.54
2023-04-30T17:24:30.771Z,17.40
2023-04-30T17:26:59.510Z,17.25
2023-04-30T17:29:26.643Z,17.12
2023-04-30T17:31:53.617Z,16.93
2023-04-30T17:34:20.919Z,16.82
2023-04-30T17:36:50.079Z,16.75
2023-04-30T17:39:18.822Z,16.61
2023-04-30T17:41:45.961Z,16.49
2023-04-30T17:44:12.797Z,16.36
2023-04-30T17:46:40.340Z,16.21
2023-04-30T17:49:08.296Z,16.14
2023-04-30T17:51:35.609Z,16.06
2023-04-30T17:54:02.732Z,15.89
2023-04-30T17:56:31.401Z,15.71
2023-04-30T17:58:58.937Z,15.61
2023-04-30T18:01:49.215Z,15.46
2023-04-30T18:05:08.642Z,15.33
2023-04-30T18:08:00.506Z,15.21
2023-04-30T18:10:50.566Z,15.04
2023-04-30T18:13:17.407Z,14.87
2023-04-30T18:15:45.082Z,14.83
2023-04-30T18:18:12.019Z,14.72
2023-04-30T18:20:38.880Z,14.77
2023-04-30T18:23:08.522Z,14.69
2023-04-30T18:25:37.328Z,14.61
2023-04-30T18:28:04.381Z,14.54
2023-04-30T18:30:31.666Z,14.45
2023-04-30T18:32:59.052Z,14.42
2023-04-30T18:35:28.563Z,14.31
2023-04-30T18:38:46.149Z,14.25
2023-04-30T18:41:13.036Z,14.12
2023-04-30T18:43:42.582Z,14.01
2023-04-30T18:46:10.032Z,13.98
2023-04-30T18:48:37.052Z,13.94
2023-04-30T18:51:04.600Z,13.86
2023-04-30T18:53:31.668Z,13.80
2023-04-30T18:55:58.494Z,13.76
2023-04-30T18:58:25.463Z,13.68
2023-04-30T19:00:52.748Z,13.66
2023-04-30T19:03:20.076Z,13.64
2023-04-30T19:05:46.901Z,13.60
2023-04-30T19:08:13.890Z,13.60
2023-04-30T19:10:40.803Z,13.51
2023-04-30T19:13:07.898Z,13.45
2023-04-30T19:15:35.763Z,13.38
2023-04-30T19:18:25.159Z,13.29
2023-04-30T19:21:01.169Z,13.18
2023-04-30T19:23:32.520Z,13.13
2023-04-30T19:25:59.685Z,13.00
2023-04-30T19:28:26.867Z,12.98
2023-04-30T19:30:55.610Z,12.91
2023-04-30T19:36:29.725Z,12.73
2023-04-30T19:38:56.752Z,12.65
2023-04-30T19:41:23.600Z,12.57
2023-04-30T19:43:52.399Z,12.44
2023-04-30T19:46:19.798Z,12.34
2023-04-30T19:48:46.850Z,12.35
2023-04-30T19:51:13.775Z,12.23
2023-04-30T19:53:40.684Z,12.26
2023-04-30T19:56:08.595Z,12.29
2023-04-30T19:58:35.829Z,12.23
2023-04-30T20:01:17.816Z,12.17
2023-04-30T20:03:45.139Z,12.17
2023-04-30T20:06:12.350Z,12.13
2023-04-30T20:08:39.327Z,12.02
2023-04-30T20:11:06.475Z,11.99
2023-04-30T20:13:33.576Z,11.94
2023-04-30T20:16:01.301Z,11.90
2023-04-30T20:18:28.339Z,11.80
2023-04-30T20:21:06.505Z,11.79
2023-04-30T20:23:33.502Z,11.63
2023-04-30T20:26:00.891Z,11.63
2023-04-30T20:28:28.119Z,11.62
2023-04-30T20:30:55.830Z,11.54
2023-04-30T20:33:59.519Z,11.55
2023-04-30T20:36:52.589Z,11.53
2023-04-30T20:39:24.951Z,11.53
2023-04-30T20:41:52.226Z,11.43
2023-04-30T20:44:19.028Z,11.26
2023-04-30T20:46:46.273Z,11.41
2023-04-30T20:49:14.693Z,11.41
2023-04-30T20:51:47.590Z,11.32
2023-04-30T20:54:23.111Z,11.19
2023-04-30T20:56:50.222Z,10.99
2023-04-30T20:59:17.332Z,10.98
2023-04-30T21:01:44.146Z,10.90
2023-04-30T21:04:11.487Z,10.86
2023-04-30T21:06:38.437Z,10.83
2023-04-30T21:09:06.413Z,10.92
2023-04-30T21:11:33.801Z,10.90
2023-04-30T21:14:00.647Z,10.88
2023-04-30T21:16:28.131Z,10.96
2023-04-30T21:18:55.175Z,10.94
2023-04-30T21:21:31.481Z,10.94
2023-04-30T21:24:01.115Z,11.00
2023-04-30T21:26:28.496Z,10.88
2023-04-30T21:28:55.945Z,10.93
2023-04-30T21:31:23.830Z,10.79
2023-04-30T21:33:50.790Z,10.95
2023-04-30T21:36:18.105Z,11.04
2023-04-30T21:38:45.009Z,11.02
2023-04-30T21:41:16.393Z,10.93
2023-04-30T21:43:43.777Z,11.03
2023-04-30T21:46:10.993Z,11.00
2023-04-30T21:48:41.025Z,11.07
2023-04-30T21:51:12.679Z,11.12
2023-04-30T21:53:39.680Z,11.01
2023-04-30T21:56:11.324Z,11.08
2023-04-30T21:58:39.031Z,11.06
2023-04-30T22:01:06.380Z,11.09
2023-04-30T22:03:34.147Z,11.07
2023-04-30T22:06:01.630Z,11.09
2023-04-30T22:08:28.764Z,11.03
2023-04-30T22:10:59.950Z,10.98
2023-04-30T22:13:28.040Z,10.91
2023-04-30T22:15:55.717Z,10.94
2023-04-30T22:18:24.724Z,10.95
2023-04-30T22:20:52.407Z,10.95
2023-04-30T22:23:23.025Z,10.91
2023-04-30T22:25:50.586Z,10.82
2023-04-30T22:28:19.257Z,10.81
2023-04-30T22:30:46.384Z,10.85
2023-04-30T22:33:13.270Z,10.85
2023-04-30T22:35:40.395Z,10.81
2023-04-30T22:38:07.808Z,10.80
2023-04-30T22:40:38.572Z,10.78
2023-04-30T22:43:06.268Z,10.64
2023-04-30T22:45:37.224Z,10.72
2023-04-30T22:48:04.855Z,10.81
2023-04-30T22:50:32.265Z,10.82
2023-04-30T22:52:59.631Z,10.80
2023-04-30T22:55:27.261Z,10.78
2023-04-30T22:57:54.156Z,10.77
2023-04-30T23:00:21.405Z,10.78
2023-04-30T23:02:48.790Z,10.74
2023-04-30T23:05:15.779Z,10.69
2023-04-30T23:07:42.676Z,10.64
2023-04-30T23:10:10.251Z,10.69
2023-04-30T23:12:37.115Z,10.57
2023-04-30T23:15:04.457Z,10.44
2023-04-30T23:17:31.322Z,10.28
2023-04-30T23:19:58.778Z,10.24
2023-04-30T23:22:25.785Z,10.20
2023-04-30T23:24:52.750Z,10.24
2023-04-30T23:27:19.600Z,10.15
2023-04-30T23:29:47.844Z,10.09
2023-04-30T23:32:14.731Z,9.98
2023-04-30T23:34:41.694Z,9.96
2023-04-30T23:37:08.944Z,10.08
2023-04-30T23:39:36.153Z,10.00
2023-04-30T23:42:02.952Z,10.02
2023-04-30T23:44:32.223Z,10.09
2023-04-30T23:47:00.939Z,10.06
2023-04-30T23:49:27.997Z,9.97
2023-04-30T23:51:54.952Z,9.94
2023-04-30T23:54:22.405Z,9.93
2023-04-30T23:56:49.758Z,9.95
2023-04-30T23:59:16.774Z,9.80
